sensor_id;sensor_type;location;lat;lon;timestamp;P1;durP1;ratioP1;P2;durP2;ratioP2
38240;SDS011;24037;49.536;8.500;2023-06-22T00:02:17;7.80;;;5.25;;
38240;SDS011;24037;49.536;8.500;2023-06-22T00:04:44;6.25;;;5.25;;
38240;SDS011;24037;49.536;8.500;2023-06-22T00:07:10;7.13;;;5.57;;
38240;SDS011;24037;49.536;8.500;2023-06-22T00:09:36;6.57;;;5.15;;
38240;SDS011;24037;49.536;8.500;2023-06-22T00:12:03;7.82;;;5.85;;
38240;SDS011;24037;49.536;8.500;2023-06-22T00:14:29;6.80;;;5.80;;
38240;SDS011;24037;49.536;8.500;2023-06-22T00:16:55;7.93;;;5.65;;
38240;SDS011;24037;49.536;8.500;2023-06-22T00:19:23;8.15;;;5.72;;
38240;SDS011;24037;49.536;8.500;2023-06-22T00:21:52;8.10;;;6.03;;
38240;SDS011;24037;49.536;8.500;2023-06-22T00:24:19;6.75;;;5.63;;
38240;SDS011;24037;49.536;8.500;2023-06-22T00:26:45;5.82;;;4.97;;
38240;SDS011;24037;49.536;8.500;2023-06-22T00:29:13;5.65;;;4.95;;
38240;SDS011;24037;49.536;8.500;2023-06-22T00:31:39;7.28;;;5.50;;
38240;SDS011;24037;49.536;8.500;2023-06-22T00:34:05;6.55;;;5.80;;
38240;SDS011;24037;49.536;8.500;2023-06-22T00:36:34;6.60;;;5.32;;
38240;SDS011;24037;49.536;8.500;2023-06-22T00:39:02;7.55;;;5.32;;
38240;SDS011;24037;49.536;8.500;2023-06-22T00:41:29;7.63;;;6.18;;
38240;SDS011;24037;49.536;8.500;2023-06-22T00:43:56;6.50;;;5.65;;
38240;SDS011;24037;49.536;8.500;2023-06-22T00:46:23;15.90;;;6.93;;
38240;SDS011;24037;49.536;8.500;2023-06-22T00:48:53;10.07;;;6.97;;
38240;SDS011;24037;49.536;8.500;2023-06-22T00:51:22;8.63;;;5.75;;
38240;SDS011;24037;49.536;8.500;2023-06-22T00:53:50;9.40;;;6.10;;
38240;SDS011;24037;49.536;8.500;2023-06-22T00:56:17;10.35;;;7.32;;
38240;SDS011;24037;49.536;8.500;2023-06-22T00:58:45;8.98;;;6.25;;
38240;SDS011;24037;49.536;8.500;2023-06-22T01:01:13;11.40;;;7.85;;
38240;SDS011;24037;49.536;8.500;2023-06-22T01:03:40;10.30;;;7.63;;
38240;SDS011;24037;49.536;8.500;2023-06-22T01:06:07;9.65;;;7.60;;
38240;SDS011;24037;49.536;8.500;2023-06-22T01:08:49;11.73;;;8.57;;
38240;SDS011;24037;49.536;8.500;2023-06-22T01:11:26;11.05;;;8.90;;
38240;SDS011;24037;49.536;8.500;2023-06-22T01:14:06;15.18;;;10.30;;
38240;SDS011;24037;49.536;8.500;2023-06-22T01:16:40;10.90;;;9.80;;
38240;SDS011;24037;49.536;8.500;2023-06-22T01:19:20;13.10;;;10.82;;
38240;SDS011;24037;49.536;8.500;2023-06-22T01:24:30;12.27;;;9.65;;
38240;SDS011;24037;49.536;8.500;2023-06-22T01:27:12;12.00;;;10.80;;
38240;SDS011;24037;49.536;8.500;2023-06-22T01:30:08;12.88;;;10.25;;
38240;SDS011;24037;49.536;8.500;2023-06-22T01:32:36;13.25;;;10.32;;
38240;SDS011;24037;49.536;8.500;2023-06-22T01:35:05;14.30;;;11.18;;
38240;SDS011;24037;49.536;8.500;2023-06-22T01:37:33;13.32;;;11.07;;
38240;SDS011;24037;49.536;8.500;2023-06-22T01:40:01;12.88;;;10.55;;
38240;SDS011;24037;49.536;8.500;2023-06-22T01:42:30;15.00;;;12.45;;
38240;SDS011;24037;49.536;8.500;2023-06-22T01:44:59;16.08;;;11.60;;
38240;SDS011;24037;49.536;8.500;2023-06-22T01:47:26;13.60;;;10.93;;
38240;SDS011;24037;49.536;8.500;2023-06-22T01:49:53;15.75;;;12.35;;
38240;SDS011;24037;49.536;8.500;2023-06-22T01:52:20;13.70;;;12.05;;
38240;SDS011;24037;49.536;8.500;2023-06-22T01:54:47;14.20;;;11.65;;
38240;SDS011;24037;49.536;8.500;2023-06-22T01:57:13;15.35;;;11.80;;
38240;SDS011;24037;49.536;8.500;2023-06-22T01:59:54;16.45;;;12.35;;
38240;SDS011;24037;49.536;8.500;2023-06-22T02:02:32;13.20;;;11.50;;
38240;SDS011;24037;49.536;8.500;2023-06-22T02:05:05;15.93;;;11.20;;
38240;SDS011;24037;49.536;8.500;2023-06-22T02:07:33;15.57;;;12.07;;
38240;SDS011;24037;49.536;8.500;2023-06-22T02:10:07;12.68;;;11.00;;
38240;SDS011;24037;49.536;8.500;2023-06-22T02:12:34;14.35;;;12.10;;
38240;SDS011;24037;49.536;8.500;2023-06-22T02:15:01;14.88;;;11.68;;
38240;SDS011;24037;49.536;8.500;2023-06-22T02:17:28;16.38;;;12.90;;
38240;SDS011;24037;49.536;8.500;2023-06-22T02:20:00;14.95;;;12.10;;
38240;SDS011;24037;49.536;8.500;2023-06-22T02:22:35;15.57;;;13.10;;
38240;SDS011;24037;49.536;8.500;2023-06-22T02:25:01;15.68;;;13.30;;
38240;SDS011;24037;49.536;8.500;2023-06-22T02:27:28;16.92;;;13.80;;
38240;SDS011;24037;49.536;8.500;2023-06-22T02:29:54;19.17;;;14.48;;
38240;SDS011;24037;49.536;8.500;2023-06-22T02:32:20;15.52;;;13.63;;
38240;SDS011;24037;49.536;8.500;2023-06-22T02:34:46;16.15;;;13.88;;
38240;SDS011;24037;49.536;8.500;2023-06-22T02:37:13;15.93;;;13.73;;
38240;SDS011;24037;49.536;8.500;2023-06-22T02:39:40;16.92;;;13.45;;
38240;SDS011;24037;49.536;8.500;2023-06-22T02:42:07;18.92;;;14.88;;
38240;SDS011;24037;49.536;8.500;2023-06-22T02:44:33;20.92;;;14.68;;
38240;SDS011;24037;49.536;8.500;2023-06-22T02:46:59;19.92;;;15.63;;
38240;SDS011;24037;49.536;8.500;2023-06-22T02:49:26;18.88;;;14.90;;
38240;SDS011;24037;49.536;8.500;2023-06-22T02:51:52;20.10;;;14.60;;
38240;SDS011;24037;49.536;8.500;2023-06-22T02:54:20;18.48;;;14.82;;
38240;SDS011;24037;49.536;8.500;2023-06-22T02:56:49;17.50;;;14.23;;
38240;SDS011;24037;49.536;8.500;2023-06-22T02:59:16;19.23;;;15.80;;
38240;SDS011;24037;49.536;8.500;2023-06-22T03:01:44;18.95;;;15.50;;
38240;SDS011;24037;49.536;8.500;2023-06-22T03:04:21;18.58;;;13.63;;
38240;SDS011;24037;49.536;8.500;2023-06-22T03:06:47;19.63;;;15.50;;
38240;SDS011;24037;49.536;8.500;2023-06-22T03:09:17;23.23;;;16.98;;
38240;SDS011;24037;49.536;8.500;2023-06-22T03:11:43;20.67;;;16.95;;
38240;SDS011;24037;49.536;8.500;2023-06-22T03:14:10;19.90;;;15.77;;
38240;SDS011;24037;49.536;8.500;2023-06-22T03:16:36;17.60;;;14.90;;
38240;SDS011;24037;49.536;8.500;2023-06-22T03:19:02;16.70;;;15.00;;
38240;SDS011;24037;49.536;8.500;2023-06-22T03:21:28;17.92;;;14.98;;
38240;SDS011;24037;49.536;8.500;2023-06-22T03:23:55;18.60;;;15.63;;
38240;SDS011;24037;49.536;8.500;2023-06-22T03:26:21;18.13;;;15.85;;
38240;SDS011;24037;49.536;8.500;2023-06-22T03:28:49;19.25;;;15.73;;
38240;SDS011;24037;49.536;8.500;2023-06-22T03:31:15;18.80;;;15.93;;
38240;SDS011;24037;49.536;8.500;2023-06-22T03:33:41;17.30;;;15.48;;
38240;SDS011;24037;49.536;8.500;2023-06-22T03:36:07;19.35;;;15.95;;
38240;SDS011;24037;49.536;8.500;2023-06-22T03:38:34;18.33;;;15.00;;
38240;SDS011;24037;49.536;8.500;2023-06-22T03:41:00;15.60;;;13.95;;
38240;SDS011;24037;49.536;8.500;2023-06-22T03:43:30;16.83;;;14.75;;
38240;SDS011;24037;49.536;8.500;2023-06-22T03:45:56;18.73;;;15.05;;
38240;SDS011;24037;49.536;8.500;2023-06-22T03:48:22;18.35;;;15.95;;
38240;SDS011;24037;49.536;8.500;2023-06-22T03:50:48;18.27;;;15.43;;
38240;SDS011;24037;49.536;8.500;2023-06-22T03:53:14;20.70;;;15.98;;
38240;SDS011;24037;49.536;8.500;2023-06-22T03:55:48;18.05;;;14.88;;
38240;SDS011;24037;49.536;8.500;2023-06-22T03:58:16;20.10;;;15.63;;
38240;SDS011;24037;49.536;8.500;2023-06-22T04:00:45;19.85;;;15.10;;
38240;SDS011;24037;49.536;8.500;2023-06-22T04:03:12;20.50;;;16.13;;
38240;SDS011;24037;49.536;8.500;2023-06-22T04:05:40;20.33;;;15.55;;
38240;SDS011;24037;49.536;8.500;2023-06-22T04:08:06;20.08;;;14.90;;
38240;SDS011;24037;49.536;8.500;2023-06-22T04:10:33;17.98;;;14.88;;
38240;SDS011;24037;49.536;8.500;2023-06-22T04:12:59;18.42;;;15.43;;
38240;SDS011;24037;49.536;8.500;2023-06-22T04:15:26;16.40;;;13.45;;
38240;SDS011;24037;49.536;8.500;2023-06-22T04:17:54;17.83;;;12.50;;
38240;SDS011;24037;49.536;8.500;2023-06-22T04:20:21;16.17;;;12.85;;
38240;SDS011;24037;49.536;8.500;2023-06-22T04:22:47;14.43;;;12.05;;
38240;SDS011;24037;49.536;8.500;2023-06-22T04:25:13;13.43;;;11.60;;
38240;SDS011;24037;49.536;8.500;2023-06-22T04:27:40;15.15;;;11.35;;
38240;SDS011;24037;49.536;8.500;2023-06-22T04:30:06;17.88;;;12.30;;
38240;SDS011;24037;49.536;8.500;2023-06-22T04:32:34;14.07;;;10.27;;
38240;SDS011;24037;49.536;8.500;2023-06-22T04:35:02;14.05;;;10.98;;
38240;SDS011;24037;49.536;8.500;2023-06-22T04:37:30;13.25;;;11.30;;
38240;SDS011;24037;49.536;8.500;2023-06-22T04:39:56;11.15;;;9.98;;
38240;SDS011;24037;49.536;8.500;2023-06-22T04:42:23;13.75;;;11.35;;
38240;SDS011;24037;49.536;8.500;2023-06-22T04:44:51;13.73;;;10.23;;
38240;SDS011;24037;49.536;8.500;2023-06-22T04:47:17;11.15;;;9.43;;
38240;SDS011;24037;49.536;8.500;2023-06-22T04:49:44;11.10;;;9.60;;
38240;SDS011;24037;49.536;8.500;2023-06-22T04:52:11;11.93;;;10.20;;
38240;SDS011;24037;49.536;8.500;2023-06-22T04:54:38;11.77;;;10.57;;
38240;SDS011;24037;49.536;8.500;2023-06-22T04:57:06;13.55;;;10.35;;
38240;SDS011;24037;49.536;8.500;2023-06-22T04:59:36;10.95;;;9.80;;
38240;SDS011;24037;49.536;8.500;2023-06-22T05:02:04;10.32;;;9.27;;
38240;SDS011;24037;49.536;8.500;2023-06-22T05:04:34;9.73;;;8.77;;
38240;SDS011;24037;49.536;8.500;2023-06-22T05:07:06;11.52;;;8.88;;
38240;SDS011;24037;49.536;8.500;2023-06-22T05:09:33;12.50;;;8.57;;
38240;SDS011;24037;49.536;8.500;2023-06-22T05:12:02;10.93;;;8.85;;
38240;SDS011;24037;49.536;8.500;2023-06-22T05:14:30;10.18;;;9.18;;
38240;SDS011;24037;49.536;8.500;2023-06-22T05:16:56;9.57;;;8.57;;
38240;SDS011;24037;49.536;8.500;2023-06-22T05:19:24;9.73;;;8.32;;
38240;SDS011;24037;49.536;8.500;2023-06-22T05:21:56;11.52;;;8.77;;
38240;SDS011;24037;49.536;8.500;2023-06-22T05:24:23;10.32;;;8.90;;
38240;SDS011;24037;49.536;8.500;2023-06-22T05:26:49;8.38;;;7.30;;
38240;SDS011;24037;49.536;8.500;2023-06-22T05:29:15;8.43;;;7.25;;
38240;SDS011;24037;49.536;8.500;2023-06-22T05:31:41;11.07;;;6.78;;
38240;SDS011;24037;49.536;8.500;2023-06-22T05:34:07;9.15;;;7.22;;
38240;SDS011;24037;49.536;8.500;2023-06-22T05:36:34;8.07;;;6.95;;
38240;SDS011;24037;49.536;8.500;2023-06-22T05:39:00;8.00;;;6.30;;
38240;SDS011;24037;49.536;8.500;2023-06-22T05:41:38;7.47;;;6.47;;
38240;SDS011;24037;49.536;8.500;2023-06-22T05:44:04;7.47;;;6.63;;
38240;SDS011;24037;49.536;8.500;2023-06-22T05:46:30;6.60;;;5.93;;
38240;SDS011;24037;49.536;8.500;2023-06-22T05:48:56;7.07;;;5.55;;
38240;SDS011;24037;49.536;8.500;2023-06-22T05:51:23;5.32;;;4.80;;
38240;SDS011;24037;49.536;8.500;2023-06-22T05:53:49;7.00;;;4.97;;
38240;SDS011;24037;49.536;8.500;2023-06-22T05:56:16;6.35;;;5.43;;
38240;SDS011;24037;49.536;8.500;2023-06-22T05:58:43;6.00;;;5.00;;
38240;SDS011;24037;49.536;8.500;2023-06-22T06:01:09;9.15;;;6.20;;
38240;SDS011;24037;49.536;8.500;2023-06-22T06:03:36;7.80;;;6.55;;
38240;SDS011;24037;49.536;8.500;2023-06-22T06:06:07;6.85;;;5.88;;
38240;SDS011;24037;49.536;8.500;2023-06-22T06:08:33;6.25;;;5.30;;
38240;SDS011;24037;49.536;8.500;2023-06-22T06:11:00;6.90;;;5.57;;
38240;SDS011;24037;49.536;8.500;2023-06-22T06:13:26;6.07;;;5.47;;
38240;SDS011;24037;49.536;8.500;2023-06-22T06:15:52;7.63;;;5.00;;
38240;SDS011;24037;49.536;8.500;2023-06-22T06:18:20;5.97;;;5.28;;
38240;SDS011;24037;49.536;8.500;2023-06-22T06:20:47;6.82;;;5.53;;
38240;SDS011;24037;49.536;8.500;2023-06-22T06:23:13;6.13;;;5.53;;
38240;SDS011;24037;49.536;8.500;2023-06-22T06:25:39;6.95;;;5.72;;
38240;SDS011;24037;49.536;8.500;2023-06-22T06:28:05;8.23;;;5.57;;
38240;SDS011;24037;49.536;8.500;2023-06-22T06:30:31;8.75;;;5.38;;
38240;SDS011;24037;49.536;8.500;2023-06-22T06:32:58;5.80;;;5.05;;
38240;SDS011;24037;49.536;8.500;2023-06-22T06:35:24;5.45;;;4.95;;
38240;SDS011;24037;49.536;8.500;2023-06-22T06:37:50;5.97;;;4.47;;
38240;SDS011;24037;49.536;8.500;2023-06-22T06:40:17;5.15;;;4.65;;
38240;SDS011;24037;49.536;8.500;2023-06-22T06:42:45;6.90;;;5.15;;
38240;SDS011;24037;49.536;8.500;2023-06-22T06:47:41;7.55;;;4.88;;
38240;SDS011;24037;49.536;8.500;2023-06-22T06:50:07;4.95;;;4.45;;
38240;SDS011;24037;49.536;8.500;2023-06-22T06:52:34;5.90;;;4.97;;
38240;SDS011;24037;49.536;8.500;2023-06-22T06:55:01;6.47;;;4.68;;
38240;SDS011;24037;49.536;8.500;2023-06-22T06:57:30;4.95;;;4.30;;
38240;SDS011;24037;49.536;8.500;2023-06-22T06:59:56;5.07;;;4.25;;
38240;SDS011;24037;49.536;8.500;2023-06-22T07:02:23;5.15;;;4.28;;
38240;SDS011;24037;49.536;8.500;2023-06-22T07:04:49;6.68;;;5.18;;
38240;SDS011;24037;49.536;8.500;2023-06-22T07:07:16;6.18;;;4.78;;
38240;SDS011;24037;49.536;8.500;2023-06-22T07:09:42;9.15;;;5.18;;
38240;SDS011;24037;49.536;8.500;2023-06-22T07:12:08;6.22;;;4.43;;
38240;SDS011;24037;49.536;8.500;2023-06-22T07:14:34;6.25;;;4.90;;
38240;SDS011;24037;49.536;8.500;2023-06-22T07:17:01;5.85;;;4.18;;
38240;SDS011;24037;49.536;8.500;2023-06-22T07:19:27;5.82;;;3.97;;
38240;SDS011;24037;49.536;8.500;2023-06-22T07:21:54;6.90;;;4.93;;
38240;SDS011;24037;49.536;8.500;2023-06-22T07:24:20;5.05;;;4.43;;
38240;SDS011;24037;49.536;8.500;2023-06-22T07:26:47;7.07;;;4.43;;
38240;SDS011;24037;49.536;8.500;2023-06-22T07:29:18;7.13;;;4.28;;
38240;SDS011;24037;49.536;8.500;2023-06-22T07:31:46;4.55;;;4.13;;
38240;SDS011;24037;49.536;8.500;2023-06-22T07:34:17;5.25;;;4.43;;
38240;SDS011;24037;49.536;8.500;2023-06-22T07:36:43;6.97;;;4.18;;
38240;SDS011;24037;49.536;8.500;2023-06-22T07:39:10;6.68;;;4.10;;
38240;SDS011;24037;49.536;8.500;2023-06-22T07:41:38;4.78;;;3.95;;
38240;SDS011;24037;49.536;8.500;2023-06-22T07:44:05;7.32;;;4.75;;
38240;SDS011;24037;49.536;8.500;2023-06-22T07:46:32;5.30;;;4.07;;
38240;SDS011;24037;49.536;8.500;2023-06-22T07:48:58;5.13;;;3.33;;
38240;SDS011;24037;49.536;8.500;2023-06-22T07:51:25;3.58;;;3.20;;
38240;SDS011;24037;49.536;8.500;2023-06-22T07:53:51;8.00;;;4.32;;
38240;SDS011;24037;49.536;8.500;2023-06-22T07:56:17;5.15;;;3.60;;
38240;SDS011;24037;49.536;8.500;2023-06-22T08:01:16;4.40;;;4.00;;
38240;SDS011;24037;49.536;8.500;2023-06-22T08:03:42;5.55;;;3.72;;
38240;SDS011;24037;49.536;8.500;2023-06-22T08:06:08;5.00;;;3.55;;
38240;SDS011;24037;49.536;8.500;2023-06-22T08:08:36;4.13;;;3.55;;
38240;SDS011;24037;49.536;8.500;2023-06-22T08:11:02;4.15;;;3.60;;
38240;SDS011;24037;49.536;8.500;2023-06-22T08:13:28;4.93;;;3.58;;
38240;SDS011;24037;49.536;8.500;2023-06-22T08:15:54;7.00;;;4.00;;
38240;SDS011;24037;49.536;8.500;2023-06-22T08:18:21;6.18;;;3.47;;
38240;SDS011;24037;49.536;8.500;2023-06-22T08:20:47;8.68;;;3.58;;
38240;SDS011;24037;49.536;8.500;2023-06-22T08:23:13;4.88;;;3.85;;
38240;SDS011;24037;49.536;8.500;2023-06-22T08:25:39;4.55;;;4.15;;
38240;SDS011;24037;49.536;8.500;2023-06-22T08:28:05;5.72;;;3.95;;
38240;SDS011;24037;49.536;8.500;2023-06-22T08:30:32;6.78;;;4.55;;
38240;SDS011;24037;49.536;8.500;2023-06-22T08:32:58;4.68;;;3.33;;
38240;SDS011;24037;49.536;8.500;2023-06-22T08:35:25;5.35;;;3.50;;
38240;SDS011;24037;49.536;8.500;2023-06-22T08:37:51;8.00;;;3.97;;
38240;SDS011;24037;49.536;8.500;2023-06-22T08:40:19;4.83;;;3.47;;
38240;SDS011;24037;49.536;8.500;2023-06-22T08:42:46;5.10;;;3.90;;
38240;SDS011;24037;49.536;8.500;2023-06-22T08:45:13;5.35;;;4.07;;
38240;SDS011;24037;49.536;8.500;2023-06-22T08:47:40;6.85;;;4.13;;
38240;SDS011;24037;49.536;8.500;2023-06-22T08:50:10;5.03;;;4.13;;
38240;SDS011;24037;49.536;8.500;2023-06-22T08:52:38;5.05;;;4.15;;
38240;SDS011;24037;49.536;8.500;2023-06-22T08:55:07;5.88;;;3.78;;
38240;SDS011;24037;49.536;8.500;2023-06-22T08:57:34;5.30;;;4.00;;
38240;SDS011;24037;49.536;8.500;2023-06-22T09:00:03;4.72;;;3.65;;
38240;SDS011;24037;49.536;8.500;2023-06-22T09:02:42;4.82;;;3.47;;
38240;SDS011;24037;49.536;8.500;2023-06-22T09:05:12;6.18;;;3.60;;
38240;SDS011;24037;49.536;8.500;2023-06-22T09:07:38;7.80;;;3.70;;
38240;SDS011;24037;49.536;8.500;2023-06-22T09:10:05;5.35;;;4.00;;
38240;SDS011;24037;49.536;8.500;2023-06-22T09:12:31;5.13;;;3.70;;
38240;SDS011;24037;49.536;8.500;2023-06-22T09:15:01;5.88;;;3.88;;
38240;SDS011;24037;49.536;8.500;2023-06-22T09:17:28;6.63;;;4.40;;
38240;SDS011;24037;49.536;8.500;2023-06-22T09:19:54;6.97;;;4.53;;
38240;SDS011;24037;49.536;8.500;2023-06-22T09:22:20;4.50;;;4.10;;
38240;SDS011;24037;49.536;8.500;2023-06-22T09:24:47;5.45;;;4.10;;
38240;SDS011;24037;49.536;8.500;2023-06-22T09:27:13;6.25;;;4.03;;
38240;SDS011;24037;49.536;8.500;2023-06-22T09:29:39;6.00;;;3.42;;
38240;SDS011;24037;49.536;8.500;2023-06-22T09:32:05;7.65;;;4.30;;
38240;SDS011;24037;49.536;8.500;2023-06-22T09:34:32;4.22;;;3.63;;
38240;SDS011;24037;49.536;8.500;2023-06-22T09:36:58;6.10;;;3.70;;
38240;SDS011;24037;49.536;8.500;2023-06-22T09:39:26;5.57;;;3.80;;
38240;SDS011;24037;49.536;8.500;2023-06-22T09:41:52;5.53;;;3.90;;
38240;SDS011;24037;49.536;8.500;2023-06-22T09:44:18;8.95;;;3.97;;
38240;SDS011;24037;49.536;8.500;2023-06-22T09:46:44;11.32;;;3.17;;
38240;SDS011;24037;49.536;8.500;2023-06-22T09:49:10;8.43;;;4.00;;
38240;SDS011;24037;49.536;8.500;2023-06-22T09:51:37;4.35;;;3.42;;
38240;SDS011;24037;49.536;8.500;2023-06-22T09:54:03;6.70;;;4.13;;
38240;SDS011;24037;49.536;8.500;2023-06-22T09:56:29;8.63;;;4.65;;
38240;SDS011;24037;49.536;8.500;2023-06-22T09:58:56;6.03;;;3.67;;
38240;SDS011;24037;49.536;8.500;2023-06-22T10:01:22;5.50;;;3.40;;
38240;SDS011;24037;49.536;8.500;2023-06-22T10:03:49;4.45;;;3.13;;
38240;SDS011;24037;49.536;8.500;2023-06-22T10:06:15;7.32;;;4.55;;
38240;SDS011;24037;49.536;8.500;2023-06-22T10:08:41;14.43;;;4.90;;
38240;SDS011;24037;49.536;8.500;2023-06-22T10:11:07;6.93;;;4.28;;
38240;SDS011;24037;49.536;8.500;2023-06-22T10:13:33;9.48;;;4.15;;
38240;SDS011;24037;49.536;8.500;2023-06-22T10:16:00;6.22;;;3.88;;
38240;SDS011;24037;49.536;8.500;2023-06-22T10:18:26;4.88;;;3.75;;
38240;SDS011;24037;49.536;8.500;2023-06-22T10:20:52;4.97;;;3.67;;
38240;SDS011;24037;49.536;8.500;2023-06-22T10:23:19;7.35;;;3.65;;
38240;SDS011;24037;49.536;8.500;2023-06-22T10:25:45;7.25;;;4.18;;
38240;SDS011;24037;49.536;8.500;2023-06-22T10:28:12;6.03;;;3.50;;
38240;SDS011;24037;49.536;8.500;2023-06-22T10:30:39;5.75;;;3.67;;
38240;SDS011;24037;49.536;8.500;2023-06-22T10:33:07;12.13;;;4.28;;
38240;SDS011;24037;49.536;8.500;2023-06-22T10:35:34;9.38;;;4.47;;
38240;SDS011;24037;49.536;8.500;2023-06-22T10:38:01;6.65;;;4.43;;
38240;SDS011;24037;49.536;8.500;2023-06-22T10:40:27;5.68;;;4.28;;
38240;SDS011;24037;49.536;8.500;2023-06-22T10:42:53;8.88;;;4.00;;
38240;SDS011;24037;49.536;8.500;2023-06-22T10:45:19;13.95;;;4.65;;
38240;SDS011;24037;49.536;8.500;2023-06-22T10:47:45;8.80;;;4.25;;
38240;SDS011;24037;49.536;8.500;2023-06-22T10:50:11;6.25;;;3.83;;
38240;SDS011;24037;49.536;8.500;2023-06-22T10:52:38;8.30;;;4.85;;
38240;SDS011;24037;49.536;8.500;2023-06-22T10:55:04;6.22;;;4.47;;
38240;SDS011;24037;49.536;8.500;2023-06-22T10:57:31;9.38;;;3.65;;
38240;SDS011;24037;49.536;8.500;2023-06-22T10:59:57;7.78;;;4.25;;
38240;SDS011;24037;49.536;8.500;2023-06-22T11:02:23;6.60;;;4.45;;
38240;SDS011;24037;49.536;8.500;2023-06-22T11:04:50;6.93;;;3.75;;
38240;SDS011;24037;49.536;8.500;2023-06-22T11:07:16;7.53;;;4.32;;
38240;SDS011;24037;49.536;8.500;2023-06-22T11:09:43;11.18;;;4.68;;
38240;SDS011;24037;49.536;8.500;2023-06-22T11:12:09;12.23;;;4.40;;
38240;SDS011;24037;49.536;8.500;2023-06-22T11:14:35;7.20;;;4.97;;
38240;SDS011;24037;49.536;8.500;2023-06-22T11:17:01;7.95;;;4.60;;
38240;SDS011;24037;49.536;8.500;2023-06-22T11:19:28;6.35;;;4.07;;
38240;SDS011;24037;49.536;8.500;2023-06-22T11:21:54;10.30;;;4.25;;
38240;SDS011;24037;49.536;8.500;2023-06-22T11:24:20;7.88;;;3.88;;
38240;SDS011;24037;49.536;8.500;2023-06-22T11:26:46;9.35;;;4.30;;
38240;SDS011;24037;49.536;8.500;2023-06-22T11:29:12;12.98;;;4.45;;
38240;SDS011;24037;49.536;8.500;2023-06-22T11:31:38;8.50;;;4.25;;
38240;SDS011;24037;49.536;8.500;2023-06-22T11:34:04;6.70;;;4.32;;
38240;SDS011;24037;49.536;8.500;2023-06-22T11:36:31;8.80;;;4.80;;
38240;SDS011;24037;49.536;8.500;2023-06-22T11:38:58;6.88;;;4.38;;
38240;SDS011;24037;49.536;8.500;2023-06-22T11:41:25;7.28;;;4.45;;
38240;SDS011;24037;49.536;8.500;2023-06-22T11:43:51;7.47;;;4.03;;
38240;SDS011;24037;49.536;8.500;2023-06-22T11:46:17;6.60;;;4.40;;
38240;SDS011;24037;49.536;8.500;2023-06-22T11:48:43;7.47;;;4.28;;
38240;SDS011;24037;49.536;8.500;2023-06-22T11:51:09;7.68;;;4.65;;
38240;SDS011;24037;49.536;8.500;2023-06-22T11:53:36;7.68;;;3.90;;
38240;SDS011;24037;49.536;8.500;2023-06-22T11:56:02;7.72;;;4.35;;
38240;SDS011;24037;49.536;8.500;2023-06-22T11:58:28;7.30;;;3.97;;
38240;SDS011;24037;49.536;8.500;2023-06-22T12:00:54;6.50;;;3.92;;
38240;SDS011;24037;49.536;8.500;2023-06-22T12:03:21;10.23;;;4.72;;
38240;SDS011;24037;49.536;8.500;2023-06-22T12:05:47;14.18;;;4.78;;
38240;SDS011;24037;49.536;8.500;2023-06-22T12:08:13;8.95;;;4.28;;
38240;SDS011;24037;49.536;8.500;2023-06-22T12:10:39;8.35;;;5.22;;
38240;SDS011;24037;49.536;8.500;2023-06-22T12:13:06;7.80;;;4.10;;
38240;SDS011;24037;49.536;8.500;2023-06-22T12:15:32;12.80;;;3.55;;
38240;SDS011;24037;49.536;8.500;2023-06-22T12:17:58;8.85;;;4.95;;
38240;SDS011;24037;49.536;8.500;2023-06-22T12:20:24;8.80;;;4.30;;
38240;SDS011;24037;49.536;8.500;2023-06-22T12:22:50;7.15;;;4.40;;
38240;SDS011;24037;49.536;8.500;2023-06-22T12:25:18;7.25;;;4.20;;
38240;SDS011;24037;49.536;8.500;2023-06-22T12:27:44;7.00;;;4.05;;
38240;SDS011;24037;49.536;8.500;2023-06-22T12:30:10;8.55;;;3.60;;
38240;SDS011;24037;49.536;8.500;2023-06-22T12:32:36;10.02;;;4.32;;
38240;SDS011;24037;49.536;8.500;2023-06-22T12:35:02;8.30;;;4.22;;
38240;SDS011;24037;49.536;8.500;2023-06-22T12:37:29;7.32;;;4.07;;
38240;SDS011;24037;49.536;8.500;2023-06-22T12:39:57;6.45;;;3.60;;
38240;SDS011;24037;49.536;8.500;2023-06-22T12:42:23;8.55;;;3.63;;
38240;SDS011;24037;49.536;8.500;2023-06-22T12:44:49;10.05;;;4.57;;
38240;SDS011;24037;49.536;8.500;2023-06-22T12:47:15;6.03;;;3.95;;
38240;SDS011;24037;49.536;8.500;2023-06-22T12:49:41;7.78;;;4.38;;
38240;SDS011;24037;49.536;8.500;2023-06-22T12:52:10;7.43;;;4.03;;
38240;SDS011;24037;49.536;8.500;2023-06-22T12:54:37;8.27;;;4.18;;
38240;SDS011;24037;49.536;8.500;2023-06-22T12:57:03;9.88;;;3.83;;
38240;SDS011;24037;49.536;8.500;2023-06-22T12:59:29;10.30;;;4.15;;
38240;SDS011;24037;49.536;8.500;2023-06-22T13:01:55;7.53;;;3.90;;
38240;SDS011;24037;49.536;8.500;2023-06-22T13:04:21;18.00;;;5.07;;
38240;SDS011;24037;49.536;8.500;2023-06-22T13:06:47;13.55;;;5.07;;
38240;SDS011;24037;49.536;8.500;2023-06-22T13:09:14;8.60;;;4.43;;
38240;SDS011;24037;49.536;8.500;2023-06-22T13:11:41;4.97;;;3.50;;
38240;SDS011;24037;49.536;8.500;2023-06-22T13:14:08;9.32;;;4.35;;
38240;SDS011;24037;49.536;8.500;2023-06-22T13:16:34;9.15;;;3.63;;
38240;SDS011;24037;49.536;8.500;2023-06-22T13:19:00;7.72;;;4.30;;
38240;SDS011;24037;49.536;8.500;2023-06-22T13:21:27;7.03;;;4.25;;
38240;SDS011;24037;49.536;8.500;2023-06-22T13:23:53;12.35;;;4.20;;
38240;SDS011;24037;49.536;8.500;2023-06-22T13:26:20;8.55;;;3.92;;
38240;SDS011;24037;49.536;8.500;2023-06-22T13:28:47;9.25;;;4.20;;
38240;SDS011;24037;49.536;8.500;2023-06-22T13:31:13;9.77;;;4.28;;
38240;SDS011;24037;49.536;8.500;2023-06-22T13:33:39;9.48;;;4.30;;
38240;SDS011;24037;49.536;8.500;2023-06-22T13:36:11;6.68;;;4.18;;
38240;SDS011;24037;49.536;8.500;2023-06-22T13:38:37;7.45;;;4.45;;
38240;SDS011;24037;49.536;8.500;2023-06-22T13:41:06;12.25;;;4.75;;
38240;SDS011;24037;49.536;8.500;2023-06-22T13:43:32;6.90;;;3.63;;
38240;SDS011;24037;49.536;8.500;2023-06-22T13:45:58;7.45;;;4.32;;
38240;SDS011;24037;49.536;8.500;2023-06-22T13:48:25;6.43;;;4.05;;
38240;SDS011;24037;49.536;8.500;2023-06-22T13:50:51;6.05;;;3.78;;
38240;SDS011;24037;49.536;8.500;2023-06-22T13:53:18;8.57;;;3.67;;
38240;SDS011;24037;49.536;8.500;2023-06-22T13:55:44;10.95;;;4.50;;
38240;SDS011;24037;49.536;8.500;2023-06-22T13:58:10;9.73;;;4.90;;
38240;SDS011;24037;49.536;8.500;2023-06-22T14:00:36;12.00;;;3.67;;
38240;SDS011;24037;49.536;8.500;2023-06-22T14:03:03;7.10;;;4.00;;
38240;SDS011;24037;49.536;8.500;2023-06-22T14:05:29;8.27;;;4.07;;
38240;SDS011;24037;49.536;8.500;2023-06-22T14:07:55;8.00;;;4.50;;
38240;SDS011;24037;49.536;8.500;2023-06-22T14:10:21;9.82;;;3.90;;
38240;SDS011;24037;49.536;8.500;2023-06-22T14:12:47;12.68;;;4.45;;
38240;SDS011;24037;49.536;8.500;2023-06-22T14:15:13;8.52;;;4.28;;
38240;SDS011;24037;49.536;8.500;2023-06-22T14:17:40;10.10;;;4.95;;
38240;SDS011;24037;49.536;8.500;2023-06-22T14:20:06;15.90;;;4.75;;
38240;SDS011;24037;49.536;8.500;2023-06-22T14:22:34;9.52;;;4.85;;
38240;SDS011;24037;49.536;8.500;2023-06-22T14:25:01;9.60;;;4.25;;
38240;SDS011;24037;49.536;8.500;2023-06-22T14:27:27;11.80;;;5.15;;
38240;SDS011;24037;49.536;8.500;2023-06-22T14:29:53;10.98;;;4.57;;
38240;SDS011;24037;49.536;8.500;2023-06-22T14:32:19;12.02;;;4.68;;
38240;SDS011;24037;49.536;8.500;2023-06-22T14:34:46;11.52;;;5.00;;
38240;SDS011;24037;49.536;8.500;2023-06-22T14:37:12;7.80;;;4.25;;
38240;SDS011;24037;49.536;8.500;2023-06-22T14:39:38;13.40;;;5.25;;
38240;SDS011;24037;49.536;8.500;2023-06-22T14:42:05;8.10;;;4.97;;
38240;SDS011;24037;49.536;8.500;2023-06-22T14:44:31;12.13;;;4.85;;
38240;SDS011;24037;49.536;8.500;2023-06-22T14:46:58;14.27;;;4.90;;
38240;SDS011;24037;49.536;8.500;2023-06-22T14:49:25;9.63;;;4.80;;